.
WxDataArchive / Data Records for 2015-08-07
2015-08-06 August 2015 2015-08-08

Data Records for Friday, 07 August 2015

Time	Temp	Chill	HIndex	Humid	Dewpt	 Wind 	HiWind	WindDir	Rain 	Barom
-----	----	-----	------	-----	-----	------	------	-------	-----	-----
00:00	61.8	61.8	61.8	73	53.0	0	0	---	0.00	29.913 
00:05	61.6	61.6	61.6	73	52.9	0	0	---	0.00	29.913 
00:10	61.6	61.6	61.6	73	52.9	0	0	---	0.00	29.913 
00:15	61.5	61.5	61.5	73	52.8	0	0	---	0.00	29.901 
00:20	61.3	61.3	61.3	74	52.9	0	0	---	0.00	29.901 
00:25	61.2	61.2	61.2	74	52.8	0	0	---	0.00	29.901 
00:30	60.9	60.9	60.9	76	53.3	0	0	---	0.00	29.896 
00:35	60.7	60.7	60.7	76	53.1	0	0	---	0.00	29.896 
00:40	60.5	60.5	60.5	77	53.2	0	0	---	0.00	29.896 
00:45	60.4	60.4	60.4	77	53.2	0	0	---	0.00	29.889 
00:50	60.1	60.1	60.1	77	52.9	0	0	---	0.00	29.889 
00:55	59.9	59.9	59.9	78	53.0	0	0	---	0.00	29.889 
01:00	59.6	59.6	59.6	78	52.7	0	0	---	0.00	29.890 
01:05	59.5	59.5	59.5	78	52.6	0	0	---	0.00	29.890 
01:10	59.3	59.3	59.3	79	52.8	0	0	---	0.00	29.890 
01:15	59.3	59.3	59.3	80	53.1	0	0	---	0.00	29.900 
01:20	59.2	59.2	59.2	80	53.0	0	0	---	0.00	29.900 
01:25	59.2	59.2	59.2	81	53.4	0	0	---	0.00	29.900 
01:30	59.0	59.0	59.0	81	53.2	0	0	---	0.00	29.901 
01:35	58.9	58.9	58.9	82	53.4	0	0	---	0.00	29.901 
01:40	58.9	58.9	58.9	82	53.4	0	0	---	0.00	29.901 
01:45	58.9	58.9	58.9	83	53.7	0	0	---	0.00	29.901 
01:50	58.7	58.7	58.7	83	53.5	0	0	---	0.00	29.901 
01:55	58.9	58.9	58.9	83	53.7	0	0	---	0.00	29.901 
02:00	58.9	58.9	58.9	83	53.7	0	0	---	0.00	29.900 
02:05	59.0	59.0	59.0	83	53.8	0	0	---	0.00	29.900 
02:10	59.0	59.0	59.0	84	54.2	0	0	---	0.00	29.900 
02:15	59.0	59.0	59.0	83	53.8	0	0	---	0.00	29.897 
02:20	59.0	59.0	59.0	84	54.2	0	0	---	0.00	29.897 
02:25	58.9	58.9	58.9	84	54.1	0	0	---	0.00	29.897 
02:30	58.9	58.9	58.9	84	54.1	0	0	---	0.00	29.900 
02:35	58.7	58.7	58.7	84	53.9	0	0	---	0.00	29.900 
02:40	58.7	58.7	58.7	84	53.9	0	0	---	0.00	29.900 
02:45	58.6	58.6	58.6	84	53.8	0	0	---	0.00	29.903 
02:50	58.4	58.4	58.4	84	53.6	0	0	---	0.00	29.903 
02:55	58.4	58.4	58.4	84	53.6	0	0	---	0.00	29.903 
03:00	58.3	58.3	58.3	84	53.5	0	0	---	0.00	29.901 
03:05	58.1	58.1	58.1	85	53.6	0	0	---	0.00	29.901 
03:10	58.1	58.1	58.1	85	53.6	0	0	---	0.00	29.901 
03:15	58.1	58.1	58.1	86	53.9	0	0	---	0.00	29.906 
03:20	58.3	58.3	58.3	86	54.1	0	0	---	0.00	29.906 
03:25	58.3	58.3	58.3	87	54.4	0	0	---	0.00	29.906 
03:30	58.3	58.3	58.3	87	54.4	0	0	---	0.00	29.902 
03:35	58.3	58.3	58.3	87	54.4	0	0	---	0.00	29.902 
03:40	58.3	58.3	58.3	87	54.4	0	0	---	0.00	29.902 
03:45	58.3	58.3	58.3	88	54.8	0	0	---	0.00	29.903 
03:50	58.3	58.3	58.3	88	54.8	0	0	---	0.00	29.903 
03:55	58.3	58.3	58.3	88	54.8	0	0	---	0.00	29.903 
04:00	58.4	58.4	58.4	88	54.9	0	0	---	0.00	29.901 
04:05	58.4	58.4	58.4	88	54.9	0	0	---	0.00	29.901 
04:10	58.6	58.6	58.6	88	55.1	0	0	---	0.00	29.901 
04:15	58.6	58.6	58.6	88	55.1	0	0	---	0.00	29.899 
04:20	58.7	58.7	58.7	88	55.2	0	0	---	0.00	29.899 
04:25	58.7	58.7	58.7	88	55.2	0	0	---	0.00	29.899 
04:30	58.9	58.9	58.9	88	55.3	0	0	---	0.00	29.899 
04:35	58.9	58.9	58.9	88	55.3	0	0	---	0.00	29.899 
04:40	58.9	58.9	58.9	88	55.3	0	0	---	0.00	29.899 
04:45	58.9	58.9	58.9	88	55.3	0	0	---	0.00	29.898 
04:50	58.9	58.9	58.9	88	55.3	0	0	---	0.00	29.898 
04:55	58.7	58.7	58.7	88	55.2	0	0	---	0.00	29.898 
05:00	58.7	58.7	58.7	88	55.2	0	0	---	0.00	29.897 
05:05	58.7	58.7	58.7	89	55.5	0	0	---	0.00	29.897 
05:10	58.6	58.6	58.6	89	55.4	0	0	---	0.00	29.897 
05:15	58.6	58.6	58.6	89	55.4	0	0	---	0.00	29.898 
05:20	58.6	58.6	58.6	89	55.4	0	0	---	0.00	29.898 
05:25	58.4	58.4	58.4	89	55.2	0	0	---	0.00	29.898 
05:30	58.3	58.3	58.3	89	55.1	0	0	---	0.00	29.893 
05:35	58.3	58.3	58.3	89	55.1	0	0	---	0.00	29.893 
05:40	58.1	58.1	58.1	89	54.9	0	0	---	0.00	29.893 
05:45	58.0	58.0	58.0	89	54.8	0	0	---	0.00	29.893 
05:50	58.0	58.0	58.0	89	54.8	0	0	---	0.00	29.893 
05:55	58.0	58.0	58.0	90	55.1	0	0	---	0.00	29.893 
06:00	58.0	58.0	58.0	90	55.1	0	0	---	0.00	29.896 
06:05	57.8	57.8	57.8	90	54.9	0	0	---	0.00	29.896 
06:10	57.8	57.8	57.8	90	54.9	0	0	---	0.00	29.896 
06:15	57.6	57.6	57.6	90	54.7	0	0	---	0.00	29.897 
06:20	57.6	57.6	57.6	90	54.7	0	0	---	0.00	29.897 
06:25	57.5	57.5	57.5	90	54.6	0	0	---	0.00	29.897 
06:30	57.5	57.5	57.5	90	54.6	0	0	---	0.00	29.900 
06:35	57.5	57.5	57.5	90	54.6	0	0	---	0.00	29.900 
06:40	57.3	57.3	57.3	90	54.4	0	0	---	0.00	29.900 
06:45	57.3	57.3	57.3	90	54.4	0	0	---	0.00	29.903 
06:50	57.3	57.3	57.3	90	54.4	0	0	---	0.00	29.903 
06:55	57.2	57.2	57.2	90	54.3	0	0	---	0.00	29.903 
07:00	57.2	57.2	57.2	90	54.3	0	0	---	0.00	29.906 
07:05	57.2	57.2	57.2	91	54.6	0	0	---	0.00	29.906 
07:10	57.2	57.2	57.2	91	54.6	0	0	---	0.00	29.906 
07:15	57.3	57.3	57.3	91	54.7	0	0	---	0.00	29.901 
07:20	57.6	57.6	57.6	92	55.3	0	1	68	0.00	29.901 
07:25	58.0	58.0	58.0	91	55.4	0	0	---	0.00	29.901 
07:30	58.3	58.3	58.3	91	55.7	0	1	68	0.00	29.902 
07:35	58.6	58.6	58.6	91	56.0	0	3	68	0.00	29.902 
07:40	58.9	58.9	58.9	91	56.3	0	1	68	0.00	29.902 
07:45	59.3	59.3	59.3	90	56.4	0	1	68	0.00	29.899 
07:50	59.6	59.6	59.6	89	56.4	0	4	68	0.00	29.899 
07:55	60.1	60.1	60.1	89	56.8	0	3	68	0.00	29.899 
08:00	60.7	60.7	60.7	88	57.1	0	3	68	0.00	29.907 
08:05	61.5	61.5	61.5	86	57.3	0	3	68	0.00	29.907 
08:10	62.3	62.3	62.3	85	57.7	0	1	68	0.00	29.907 
08:15	63.1	63.1	63.1	82	57.5	0	3	68	0.00	29.913 
08:20	63.7	63.7	63.7	81	57.8	0	1	68	0.00	29.913 
08:25	64.2	64.2	64.2	81	58.2	0	1	68	0.00	29.913 
08:30	64.7	64.7	64.7	80	58.4	0	1	68	0.00	29.913 
08:35	65.3	65.3	65.3	78	58.3	0	2	68	0.00	29.913 
08:40	65.8	65.8	65.8	76	58.0	0	3	68	0.00	29.913 
08:45	66.3	66.3	66.3	76	58.5	1	3	68	0.00	29.913 
08:50	66.4	66.4	66.4	75	58.2	1	4	68	0.00	29.913 
08:55	66.8	66.8	66.8	75	58.6	1	4	68	0.00	29.913 
09:00	67.1	67.1	67.1	74	58.5	1	3	90	0.00	29.908 
09:05	67.4	67.4	67.4	74	58.8	1	4	90	0.00	29.908 
09:10	67.9	67.9	67.9	73	58.9	1	4	90	0.00	29.908 
09:15	68.1	68.1	68.1	72	58.7	2	5	90	0.00	29.911 
09:20	68.4	68.4	68.4	71	58.6	1	5	90	0.00	29.911 
09:25	68.6	68.6	68.6	72	59.2	2	6	90	0.00	29.911 
09:30	69.1	69.1	69.1	72	59.7	1	5	90	0.00	29.917 
09:35	69.6	69.6	69.6	70	59.4	1	4	90	0.00	29.917 
09:40	69.9	69.9	69.9	70	59.7	1	5	90	0.00	29.917 
09:45	70.3	70.3	70.3	70	60.0	1	4	90	0.00	29.920 
09:50	70.9	70.9	70.9	68	59.8	1	3	90	0.00	29.920 
09:55	71.1	71.1	71.1	68	60.0	2	5	90	0.00	29.920 
10:00	71.3	71.3	71.3	68	60.2	1	6	90	0.00	29.914 
10:05	71.1	71.1	71.1	68	60.0	3	6	90	0.00	29.914 
10:10	71.1	71.1	71.1	68	60.0	2	6	90	0.00	29.914 
10:15	71.1	71.1	71.1	68	60.0	3	5	112	0.00	29.913 
10:20	71.5	71.5	71.5	68	60.4	2	5	112	0.00	29.913 
10:25	72.0	72.0	72.0	67	60.4	1	4	112	0.00	29.913 
10:30	72.3	72.3	72.3	66	60.3	2	6	90	0.00	29.912 
10:35	72.5	72.5	72.5	65	60.0	2	5	90	0.00	29.912 
10:40	72.7	72.7	72.7	66	60.7	2	6	90	0.00	29.912 
10:45	72.7	72.7	72.7	65	60.2	2	6	68	0.00	29.910 
10:50	73.0	73.0	73.0	63	59.6	2	6	90	0.00	29.910 
10:55	72.8	72.8	72.8	63	59.5	2	6	90	0.00	29.910 
11:00	73.3	73.3	73.3	64	60.4	2	5	90	0.00	29.909 
11:05	73.5	73.5	73.5	62	59.7	1	3	90	0.00	29.909 
11:10	73.7	73.7	73.7	61	59.4	1	4	90	0.00	29.909 
11:15	73.9	73.9	73.9	61	59.6	2	6	68	0.00	29.911 
11:20	74.2	74.2	74.2	61	59.9	1	5	68	0.00	29.911 
11:25	74.6	74.6	74.6	58	58.8	2	7	68	0.00	29.911 
11:30	74.7	74.7	74.7	57	58.4	1	4	90	0.00	29.913 
11:35	75.4	75.4	77.6	61	61.0	0	3	68	0.00	29.913 
11:40	75.8	75.8	77.9	56	59.0	2	5	68	0.00	29.913 
11:45	76.1	76.1	78.1	56	59.2	1	4	68	0.00	29.917 
11:50	76.3	76.3	78.3	54	58.4	1	4	90	0.00	29.917 
11:55	75.8	75.8	78.0	54	57.9	1	4	90	0.00	29.917 
12:00	75.4	75.4	77.7	56	58.6	1	4	90	0.00	29.922 
12:05	75.3	75.3	77.7	54	57.5	1	5	90	0.00	29.922 
12:10	75.3	75.3	77.6	57	59.0	1	4	90	0.00	29.922 
12:15	75.8	75.8	78.0	55	58.5	1	4	90	0.00	29.914 
12:20	75.8	75.8	78.0	54	57.9	1	3	90	0.00	29.914 
12:25	76.1	76.1	78.1	54	58.2	1	4	112	0.00	29.914 
12:30	76.8	76.8	78.6	54	58.9	1	4	112	0.00	29.910 
12:35	76.8	76.8	78.5	53	58.4	1	5	90	0.00	29.910 
12:40	76.7	76.7	78.4	51	57.2	1	4	90	0.00	29.910 
12:45	77.0	77.0	78.6	51	57.5	1	4	90	0.00	29.909 
12:50	76.7	76.7	78.5	52	57.7	2	5	90	0.00	29.909 
12:55	76.7	76.7	78.4	50	56.6	2	6	90	0.00	29.909 
13:00	76.8	76.8	78.5	52	57.8	1	4	68	0.00	29.908 
13:05	76.8	76.8	78.5	52	57.8	2	5	68	0.00	29.908 
13:10	76.8	76.8	78.5	53	58.4	1	4	68	0.00	29.908 
13:15	77.0	77.0	78.6	50	56.9	0	3	68	0.00	29.897 
13:20	77.2	77.2	78.7	50	57.1	1	4	68	0.00	29.897 
13:25	77.4	77.4	78.8	48	56.1	1	3	68	0.00	29.897 
13:30	77.6	77.6	79.0	50	57.5	1	3	68	0.00	29.896 
13:35	77.4	77.4	78.8	49	56.7	0	1	68	0.00	29.896 
13:40	77.4	77.4	78.8	48	56.1	2	7	68	0.00	29.896 
13:45	77.4	77.4	78.8	49	56.7	1	3	112	0.00	29.897 
13:50	77.9	77.9	79.1	48	56.6	1	4	112	0.00	29.897 
13:55	78.3	78.3	79.3	48	57.0	0	2	112	0.00	29.897 
14:00	78.5	78.5	79.4	47	56.6	0	2	112	0.00	29.893 
14:05	78.8	78.8	79.6	46	56.2	1	4	112	0.00	29.893 
14:10	78.8	78.8	79.7	49	58.0	0	4	112	0.00	29.893 
14:15	78.6	78.6	79.5	48	57.2	1	3	315	0.00	29.893 
14:20	78.5	78.5	79.3	45	55.4	2	7	90	0.00	29.893 
14:25	78.5	78.5	79.3	45	55.4	1	3	90	0.00	29.893 
14:30	78.5	78.5	79.2	44	54.7	1	5	90	0.00	29.895 
14:35	78.6	78.6	79.4	45	55.5	2	5	90	0.00	29.895 
14:40	79.0	79.0	79.6	45	55.8	1	4	68	0.00	29.895 
14:45	79.4	79.4	80.0	46	56.8	1	6	68	0.00	29.895 
14:50	79.0	79.0	79.6	44	55.2	1	5	90	0.00	29.895 
14:55	79.0	79.0	79.7	46	56.4	0	0	---	0.00	29.895 
15:00	79.4	79.4	79.8	44	55.6	0	4	90	0.00	29.894 
15:05	79.8	79.8	80.1	44	55.9	0	2	90	0.00	29.894 
15:10	79.9	79.9	80.6	49	59.0	1	3	90	0.00	29.894 
15:15	80.1	80.1	80.5	46	57.4	0	2	90	0.00	29.888 
15:20	80.3	80.3	80.6	45	57.0	0	3	90	0.00	29.888 
15:25	80.3	80.3	80.6	45	57.0	2	6	90	0.00	29.888 
15:30	79.8	79.8	80.0	43	55.3	1	5	68	0.00	29.887 
15:35	79.6	79.6	80.0	44	55.7	2	7	68	0.00	29.887 
15:40	79.8	79.8	80.2	45	56.5	1	3	90	0.00	29.887 
15:45	79.8	79.8	80.1	44	55.9	1	4	90	0.00	29.886 
15:50	79.9	79.9	80.4	46	57.2	0	3	90	0.00	29.886 
15:55	80.3	80.3	80.3	42	55.1	0	2	90	0.00	29.886 
16:00	80.3	80.3	80.3	42	55.1	1	4	90	0.00	29.881 
16:05	80.1	80.1	80.3	44	56.2	1	3	90	0.00	29.881 
16:10	80.1	80.1	80.3	44	56.2	1	3	90	0.00	29.881 
16:15	79.9	79.9	80.1	43	55.4	1	4	90	0.00	29.879 
16:20	80.1	80.1	80.3	43	55.6	0	2	90	0.00	29.879 
16:25	80.5	80.5	80.6	44	56.6	1	3	90	0.00	29.879 
16:30	80.5	80.5	80.6	43	55.9	1	3	90	0.00	29.873 
16:35	80.3	80.3	80.5	44	56.4	1	3	90	0.00	29.873 
16:40	80.1	80.1	80.2	42	54.9	0	3	90	0.00	29.873 
16:45	80.1	80.1	80.3	43	55.6	1	4	90	0.00	29.874 
16:50	79.8	79.8	80.0	43	55.3	1	3	90	0.00	29.874 
16:55	79.6	79.6	80.0	45	56.4	0	2	90	0.00	29.874 
17:00	79.4	79.4	79.8	44	55.6	0	3	90	0.00	29.871 
17:05	79.6	79.6	80.0	44	55.7	0	1	90	0.00	29.871 
17:10	79.8	79.8	80.3	46	57.2	0	1	90	0.00	29.871 
17:15	80.3	80.3	80.4	43	55.7	0	1	90	0.00	29.868 
17:20	80.9	80.9	80.7	41	55.0	0	2	90	0.00	29.868 
17:25	81.4	81.4	81.2	42	56.1	0	1	90	0.00	29.868 
17:30	81.6	81.6	81.2	41	55.6	0	1	90	0.00	29.865 
17:35	81.2	81.2	81.1	43	56.5	0	2	90	0.00	29.865 
17:40	80.5	80.5	80.6	43	55.9	1	4	90	0.00	29.865 
17:45	79.9	79.9	80.3	45	56.6	0	2	90	0.00	29.866 
17:50	79.6	79.6	80.0	44	55.7	0	1	90	0.00	29.866 
17:55	79.4	79.4	79.8	44	55.6	0	1	90	0.00	29.866 
18:00	79.0	79.0	79.6	45	55.8	0	1	90	0.00	29.864 
18:05	78.8	78.8	79.4	44	55.0	0	1	90	0.00	29.864 
18:10	78.8	78.8	79.4	44	55.0	0	1	90	0.00	29.864 
18:15	79.2	79.2	79.8	45	56.0	0	1	90	0.00	29.865 
18:20	79.4	79.4	79.9	45	56.2	0	1	90	0.00	29.865 
18:25	79.0	79.0	79.7	46	56.4	0	2	90	0.00	29.865 
18:30	78.6	78.6	79.4	46	56.1	0	1	90	0.00	29.864 
18:35	78.3	78.3	79.2	46	55.8	0	1	90	0.00	29.864 
18:40	77.9	77.9	79.0	47	56.0	0	3	90	0.00	29.864 
18:45	77.6	77.6	78.8	46	55.2	0	1	90	0.00	29.858 
18:50	77.4	77.4	78.7	46	55.0	0	1	90	0.00	29.858 
18:55	77.2	77.2	78.7	48	56.0	0	0	---	0.00	29.858 
19:00	77.2	77.2	78.7	48	56.0	0	1	90	0.00	29.858 
19:05	77.2	77.2	78.6	47	55.4	0	1	90	0.00	29.858 
19:10	77.2	77.2	78.6	47	55.4	0	1	90	0.00	29.858 
19:15	77.2	77.2	78.7	48	56.0	0	0	---	0.00	29.849 
19:20	77.2	77.2	78.7	48	56.0	0	1	90	0.00	29.849 
19:25	77.2	77.2	78.7	48	56.0	0	0	---	0.00	29.849 
19:30	77.4	77.4	78.8	48	56.1	0	1	90	0.00	29.846 
19:35	77.2	77.2	78.7	48	56.0	0	1	90	0.00	29.846 
19:40	77.2	77.2	78.7	48	56.0	0	0	---	0.00	29.846 
19:45	77.2	77.2	78.7	50	57.1	0	0	---	0.00	29.850 
19:50	77.2	77.2	78.7	50	57.1	0	0	---	0.00	29.850 
19:55	77.0	77.0	78.6	49	56.4	0	0	---	0.00	29.850 
20:00	76.8	76.8	78.4	47	55.0	0	0	---	0.00	29.856 
20:05	76.8	76.8	78.4	48	55.6	0	0	---	0.00	29.856 
20:10	76.8	76.8	78.5	49	56.2	0	0	---	0.00	29.856 
20:15	76.7	76.7	78.4	50	56.6	0	0	---	0.00	29.855 
20:20	76.7	76.7	78.4	49	56.1	0	0	---	0.00	29.855 
20:25	76.5	76.5	78.3	50	56.5	0	0	---	0.00	29.855 
20:30	76.3	76.3	78.2	53	57.9	0	0	---	0.00	29.847 
20:35	76.0	76.0	78.1	54	58.1	0	0	---	0.00	29.847 
20:40	75.4	75.4	77.8	53	57.1	0	0	---	0.00	29.847 
20:45	75.1	75.1	77.6	53	56.8	0	0	---	0.00	29.856 
20:50	74.7	74.7	74.7	55	57.4	0	0	---	0.00	29.856 
20:55	74.4	74.4	74.4	56	57.7	0	0	---	0.00	29.856 
21:00	74.0	74.0	74.0	58	58.3	0	0	---	0.00	29.861 
21:05	73.9	73.9	73.9	58	58.2	0	0	---	0.00	29.861 
21:10	73.3	73.3	73.3	58	57.6	0	0	---	0.00	29.861 
21:15	73.0	73.0	73.0	59	57.8	0	0	---	0.00	29.858 
21:20	72.7	72.7	72.7	60	58.0	0	0	---	0.00	29.858 
21:25	72.5	72.5	72.5	61	58.3	0	0	---	0.00	29.858 
21:30	72.3	72.3	72.3	62	58.5	0	0	---	0.00	29.862 
21:35	72.1	72.1	72.1	63	58.8	0	0	---	0.00	29.862 
21:40	71.8	71.8	71.8	64	59.0	0	0	---	0.00	29.862 
21:45	71.6	71.6	71.6	65	59.2	0	0	---	0.00	29.869 
21:50	71.3	71.3	71.3	66	59.3	0	0	---	0.00	29.869 
21:55	70.9	70.9	70.9	68	59.8	0	0	---	0.00	29.869 
22:00	70.8	70.8	70.8	67	59.3	0	0	---	0.00	29.876 
22:05	70.9	70.9	70.9	67	59.4	0	0	---	0.00	29.876 
22:10	71.1	71.1	71.1	67	59.6	0	0	---	0.00	29.876 
22:15	71.1	71.1	71.1	67	59.6	0	0	---	0.00	29.881 
22:20	71.1	71.1	71.1	68	60.0	0	0	---	0.00	29.881 
22:25	70.9	70.9	70.9	68	59.8	0	0	---	0.00	29.881 
22:30	70.8	70.8	70.8	68	59.7	0	0	---	0.00	29.882 
22:35	70.6	70.6	70.6	69	59.9	0	0	---	0.00	29.882 
22:40	70.4	70.4	70.4	69	59.7	0	0	---	0.00	29.882 
22:45	70.3	70.3	70.3	69	59.6	0	0	---	0.00	29.889 
22:50	70.1	70.1	70.1	69	59.4	0	0	---	0.00	29.889 
22:55	69.9	69.9	69.9	70	59.7	0	0	---	0.00	29.889 
23:00	69.8	69.8	69.8	70	59.6	0	0	---	0.00	29.887 
23:05	69.6	69.6	69.6	70	59.4	0	0	---	0.00	29.887 
23:10	69.4	69.4	69.4	70	59.2	0	0	---	0.00	29.887 
23:15	69.4	69.4	69.4	71	59.6	0	0	---	0.00	29.880 
23:20	69.3	69.3	69.3	71	59.5	0	0	---	0.00	29.880 
23:25	69.1	69.1	69.1	71	59.3	0	0	---	0.00	29.880 
23:30	69.1	69.1	69.1	71	59.3	0	0	---	0.00	29.875 
23:35	68.9	68.9	68.9	72	59.5	0	0	---	0.00	29.875 
23:40	68.8	68.8	68.8	72	59.4	0	0	---	0.00	29.875 
23:45	68.6	68.6	68.6	73	59.6	0	0	---	0.00	29.878 
23:50	68.4	68.4	68.4	73	59.4	0	0	---	0.00	29.878 
23:55	68.3	68.3	68.3	73	59.3	0	0	---	0.00	29.878 

CoCoRaHS
IN-AL-39
A2 Web Hosting
Creative Commons License
GoDaddy
search engine by freefind advanced

loaded 2018-11-20 06:16:58 • last modified 2010-11-18 10:43:29
Privacy PolicyDisclaimer
• wx.awcolley.com is powered by PmWiki v.2002016 •
• all content (unless otherwise noted) © 2018 A W Colley